Time;durP1;ratioP1;P1;durP2;ratioP2;P2;SDS_P1;SDS_P2;PMS_P1;PMS_P2;Temp;Humidity;BMP_temperature;BMP_pressure;BME280_temperature;BME280_humidity;BME280_pressure;Samples;Min_cycle;Max_cycle;Signal;HPM_P1;HPM_P2
2023/11/03 00:02:22;;;;;;;6.50;1.88;;;;;;;11.02;77.65;97318.13;6311241;22;20019;-79
2023/11/03 00:04:50;;;;;;;5.80;2.58;;;;;;;11.03;77.82;97317.09;6312132;22;20053;-82
2023/11/03 00:07:17;;;;;;;5.63;2.17;;;;;;;11.05;77.46;97319.47;6312863;22;20019;-79
2023/11/03 00:09:48;;;;;;;6.72;2.05;;;;;;;11.02;77.81;97325.97;6314249;22;20077;-81
2023/11/03 00:12:17;;;;;;;4.40;1.67;;;;;;;11.01;77.24;97327.00;6313433;22;20019;-81
2023/11/03 00:14:43;;;;;;;5.63;2.20;;;;;;;11.02;78.11;97341.66;6311911;22;20367;-79
2023/11/03 00:17:13;;;;;;;4.05;1.55;;;;;;;11.00;77.77;97327.25;6311211;22;20486;-81
2023/11/03 00:19:40;;;;;;;6.18;1.88;;;;;;;11.00;77.91;97341.09;6312893;22;20024;-80
2023/11/03 00:22:07;;;;;;;8.15;1.85;;;;;;;10.96;78.10;97353.88;6311352;22;20022;-80
2023/11/03 00:24:33;;;;;;;5.75;2.42;;;;;;;10.97;78.47;97352.84;6311203;22;20046;-78
2023/11/03 00:27:00;;;;;;;6.03;2.05;;;;;;;11.00;77.86;97346.34;6313006;22;20336;-81
2023/11/03 00:29:28;;;;;;;7.85;2.22;;;;;;;10.96;78.07;97343.41;6315028;22;20023;-81
2023/11/03 00:31:54;;;;;;;4.60;2.20;;;;;;;10.92;78.15;97352.75;6308114;22;20095;-79
2023/11/03 00:34:21;;;;;;;5.38;1.65;;;;;;;10.91;78.21;97342.53;6312855;22;20098;-80
2023/11/03 00:36:47;;;;;;;5.35;1.95;;;;;;;10.98;77.77;97351.03;6313623;22;20029;-80
2023/11/03 00:39:15;;;;;;;5.47;2.08;;;;;;;10.97;78.10;97371.16;6314444;22;20340;-79
2023/11/03 00:41:42;;;;;;;4.57;2.05;;;;;;;10.94;78.04;97363.00;6308988;22;20015;-79
2023/11/03 00:44:11;;;;;;;5.20;1.70;;;;;;;10.92;78.28;97367.66;6311894;22;20019;-79
2023/11/03 00:46:39;;;;;;;5.70;2.10;;;;;;;10.85;78.25;97373.06;6314651;22;20029;-81
2023/11/03 00:49:07;;;;;;;6.32;2.15;;;;;;;10.82;78.19;97360.47;6314211;22;20047;-80
2023/11/03 00:51:33;;;;;;;5.90;2.25;;;;;;;10.87;78.26;97365.00;6309299;22;20038;-79
2023/11/03 00:54:01;;;;;;;7.25;1.95;;;;;;;10.89;78.30;97378.59;6307499;22;20385;-76
2023/11/03 00:56:28;;;;;;;4.28;1.80;;;;;;;10.86;78.55;97381.72;6311005;22;20019;-80
2023/11/03 00:58:55;;;;;;;3.60;1.33;;;;;;;10.79;77.99;97362.75;6317098;22;20030;-77
2023/11/03 01:01:21;;;;;;;4.70;1.73;;;;;;;10.79;77.99;97368.78;6311895;22;20051;-80
2023/11/03 01:03:49;;;;;;;2.97;1.40;;;;;;;10.72;78.73;97378.59;6313318;22;20054;-81
2023/11/03 01:06:16;;;;;;;5.07;1.60;;;;;;;10.58;79.20;97383.31;6315336;22;20047;-79
2023/11/03 01:08:43;;;;;;;2.50;1.55;;;;;;;10.63;79.45;97390.47;6314685;22;20050;-80
2023/11/03 01:11:09;;;;;;;3.55;1.45;;;;;;;10.59;79.43;97389.34;6312586;22;20057;-78
2023/11/03 01:13:36;;;;;;;2.83;1.35;;;;;;;10.64;79.26;97392.06;6314529;22;20023;-78
2023/11/03 01:16:07;;;;;;;4.82;1.88;;;;;;;10.62;78.99;97389.66;6313157;22;20034;-81
2023/11/03 01:18:35;;;;;;;5.20;1.58;;;;;;;10.61;79.01;97382.84;6313796;22;20030;-80
2023/11/03 01:21:09;;;;;;;4.10;1.52;;;;;;;10.61;79.19;97397.75;6314484;22;20023;-81
2023/11/03 01:23:35;;;;;;;5.28;1.77;;;;;;;10.60;79.23;97396.16;6314148;22;20023;-81
2023/11/03 01:26:03;;;;;;;3.20;1.80;;;;;;;10.56;79.23;97402.88;6313298;22;20050;-81
2023/11/03 01:28:30;;;;;;;4.15;1.98;;;;;;;10.57;79.34;97407.88;6313975;22;20037;-81
2023/11/03 01:30:57;;;;;;;3.25;1.85;;;;;;;10.57;79.74;97412.31;6312861;22;20456;-79
2023/11/03 01:33:24;;;;;;;4.07;1.27;;;;;;;10.56;79.56;97429.03;6314307;22;20019;-81
2023/11/03 01:35:51;;;;;;;2.75;1.55;;;;;;;10.54;79.83;97428.47;6315891;22;20555;-80
2023/11/03 01:38:19;;;;;;;6.13;1.75;;;;;;;10.55;80.31;97425.63;6314666;22;20483;-80
2023/11/03 01:40:46;;;;;;;7.97;1.77;;;;;;;10.48;80.21;97421.56;6314892;22;20406;-79
2023/11/03 01:43:13;;;;;;;5.63;1.88;;;;;;;10.51;80.08;97415.84;6313223;22;20015;-78
2023/11/03 01:45:39;;;;;;;4.32;1.77;;;;;;;10.55;79.90;97424.81;6313007;22;20072;-81
2023/11/03 01:48:07;;;;;;;4.63;1.50;;;;;;;10.58;80.13;97426.97;6313045;22;20043;-81
2023/11/03 01:50:35;;;;;;;3.92;1.63;;;;;;;10.48;80.04;97414.50;6313348;22;20030;-80
2023/11/03 01:53:02;;;;;;;5.85;1.80;;;;;;;10.51;80.35;97418.47;6313719;22;20019;-78
2023/11/03 01:55:31;;;;;;;4.35;2.22;;;;;;;10.51;80.44;97429.72;6311984;22;20023;-79
2023/11/03 01:57:59;;;;;;;3.22;1.40;;;;;;;10.49;80.74;97428.38;6312563;22;20023;-78
2023/11/03 02:00:26;;;;;;;2.33;1.20;;;;;;;10.48;80.44;97430.19;6306761;22;20097;-79
2023/11/03 02:02:54;;;;;;;4.13;1.35;;;;;;;10.54;80.59;97436.31;6305659;22;20057;-79
2023/11/03 02:05:20;;;;;;;4.53;1.90;;;;;;;10.40;80.71;97448.09;6304963;22;20099;-79
2023/11/03 02:07:48;;;;;;;4.13;1.63;;;;;;;10.47;80.64;97454.75;6305741;22;20395;-78
2023/11/03 02:10:15;;;;;;;3.05;1.73;;;;;;;10.40;80.84;97454.09;6305351;22;20019;-79
2023/11/03 02:12:43;;;;;;;3.72;1.50;;;;;;;10.44;80.97;97467.47;6305263;22;20019;-79
2023/11/03 02:15:10;;;;;;;7.53;2.15;;;;;;;10.46;81.05;97463.59;6305007;22;20102;-79
2023/11/03 02:17:38;;;;;;;5.80;1.90;;;;;;;10.45;81.30;97463.84;6304980;22;20019;-78
2023/11/03 02:20:07;;;;;;;3.38;1.95;;;;;;;10.42;81.08;97466.91;6305246;22;20023;-79
2023/11/03 02:22:34;;;;;;;5.68;1.60;;;;;;;10.39;81.01;97457.75;6304004;22;20025;-79
2023/11/03 02:25:03;;;;;;;3.97;1.50;;;;;;;10.44;81.10;97449.19;6305126;22;20122;-77
2023/11/03 02:27:30;;;;;;;8.13;2.22;;;;;;;10.42;81.19;97452.03;6305470;22;20026;-79
2023/11/03 02:29:57;;;;;;;4.00;1.55;;;;;;;10.40;80.76;97438.41;6306337;22;20049;-80
2023/11/03 02:32:23;;;;;;;8.77;1.77;;;;;;;10.40;80.85;97448.84;6311034;22;20091;-79
2023/11/03 02:34:50;;;;;;;3.75;1.75;;;;;;;10.36;81.23;97446.97;6309868;22;20499;-79
2023/11/03 02:37:17;;;;;;;3.75;1.73;;;;;;;10.34;81.46;97451.63;6309760;22;20030;-79
2023/11/03 02:39:47;;;;;;;3.90;1.88;;;;;;;10.38;81.22;97450.13;6310746;22;20050;-80
2023/11/03 02:42:15;;;;;;;3.55;1.75;;;;;;;10.44;81.17;97433.50;6310605;22;20061;-79
2023/11/03 02:44:42;;;;;;;3.38;1.88;;;;;;;10.37;81.55;97440.72;6311088;22;20054;-79
2023/11/03 02:47:08;;;;;;;4.22;2.08;;;;;;;10.40;81.11;97448.09;6312425;22;20023;-80
2023/11/03 02:49:35;;;;;;;3.42;1.67;;;;;;;10.29;81.94;97447.88;6312118;22;20023;-80
2023/11/03 02:52:02;;;;;;;4.72;1.98;;;;;;;10.30;81.79;97459.13;6313850;22;20043;-78
2023/11/03 02:54:29;;;;;;;3.53;1.83;;;;;;;10.24;82.26;97458.22;6314370;22;20023;-80
2023/11/03 02:56:56;;;;;;;3.50;1.17;;;;;;;10.27;81.93;97463.00;6311705;22;20110;-80
2023/11/03 02:59:24;;;;;;;3.13;1.38;;;;;;;10.29;82.21;97450.50;6311436;22;20415;-78
2023/11/03 03:01:50;;;;;;;7.57;2.30;;;;;;;10.28;81.95;97451.53;6310538;22;20019;-78
2023/11/03 03:04:17;;;;;;;5.70;1.67;;;;;;;10.28;82.00;97446.28;6311950;22;20027;-80
2023/11/03 03:06:45;;;;;;;4.68;1.90;;;;;;;10.32;81.83;97445.84;6313644;22;20042;-81
2023/11/03 03:09:15;;;;;;;7.00;2.10;;;;;;;10.30;82.13;97446.84;6313796;22;20355;-80
2023/11/03 03:11:41;;;;;;;3.88;1.95;;;;;;;10.28;81.63;97450.72;6313892;22;20024;-80
2023/11/03 03:14:08;;;;;;;5.55;1.88;;;;;;;10.20;81.90;97446.66;6312919;22;20058;-80
2023/11/03 03:16:36;;;;;;;6.40;2.08;;;;;;;10.15;82.44;97451.75;6312978;22;20031;-80
2023/11/03 03:19:03;;;;;;;6.78;2.33;;;;;;;10.11;82.59;97450.59;6312745;22;20096;-79
2023/11/03 03:21:30;;;;;;;3.45;1.80;;;;;;;10.04;82.89;97447.31;6312530;22;20046;-80
2023/11/03 03:23:56;;;;;;;4.50;1.73;;;;;;;9.99;83.04;97447.22;6312821;22;20046;-78
2023/11/03 03:26:23;;;;;;;2.40;1.58;;;;;;;10.01;82.79;97439.16;6313089;22;20019;-79
2023/11/03 03:28:49;;;;;;;5.18;1.85;;;;;;;10.00;83.13;97430.53;6313227;22;20030;-81
2023/11/03 03:31:16;;;;;;;6.30;1.77;;;;;;;9.92;82.88;97441.34;6312744;22;20030;-81
2023/11/03 03:33:47;;;;;;;5.65;2.05;;;;;;;9.96;83.46;97447.66;6313471;22;20043;-81
2023/11/03 03:36:13;;;;;;;4.57;1.50;;;;;;;9.86;83.48;97448.28;6309819;22;20023;-80
2023/11/03 03:38:40;;;;;;;6.05;1.83;;;;;;;9.85;83.79;97456.34;6313431;22;20027;-80
2023/11/03 03:41:11;;;;;;;5.53;2.03;;;;;;;9.91;83.64;97458.84;6314776;22;20359;-80
2023/11/03 03:43:38;;;;;;;5.90;2.03;;;;;;;9.94;83.55;97470.63;6311888;22;20355;-78
2023/11/03 03:46:05;;;;;;;6.93;1.85;;;;;;;9.97;83.47;97457.88;6311071;22;20479;-81
2023/11/03 03:48:31;;;;;;;5.28;1.92;;;;;;;10.02;83.14;97462.44;6312632;22;20023;-79
2023/11/03 03:50:59;;;;;;;7.75;2.33;;;;;;;9.94;83.44;97466.19;6310289;22;20034;-78
2023/11/03 03:53:26;;;;;;;4.75;2.00;;;;;;;9.84;84.17;97460.75;6310251;22;20026;-79
2023/11/03 03:55:53;;;;;;;6.57;2.28;;;;;;;9.79;83.96;97462.47;6311988;22;20027;-80
2023/11/03 03:58:19;;;;;;;4.95;2.08;;;;;;;9.67;84.53;97464.28;6312662;22;20046;-80
2023/11/03 04:00:46;;;;;;;5.90;1.73;;;;;;;9.63;84.87;97467.34;6314284;22;20050;-82
2023/11/03 04:03:13;;;;;;;3.08;2.22;;;;;;;9.64;84.67;97471.53;6315761;22;20019;-78
2023/11/03 04:05:39;;;;;;;6.82;2.72;;;;;;;9.61;84.77;97456.31;6311631;22;20352;-76
2023/11/03 04:08:07;;;;;;;5.35;2.45;;;;;;;9.63;84.91;97467.34;6312590;22;20050;-79
2023/11/03 04:10:34;;;;;;;7.45;2.63;;;;;;;9.61;84.68;97463.38;6310024;22;20412;-78
2023/11/03 04:13:01;;;;;;;5.43;1.98;;;;;;;9.56;84.73;97469.25;6309700;22;20046;-78
2023/11/03 04:15:27;;;;;;;6.38;2.17;;;;;;;9.54;85.11;97475.72;6313125;22;20055;-79
2023/11/03 04:17:54;;;;;;;8.77;1.88;;;;;;;9.49;85.14;97479.00;6313841;22;20023;-78
2023/11/03 04:20:20;;;;;;;6.65;2.70;;;;;;;9.44;85.25;97476.31;6314105;22;20459;-80
2023/11/03 04:22:47;;;;;;;11.27;2.97;;;;;;;9.50;85.29;97491.03;6315481;22;20015;-80
2023/11/03 04:25:15;;;;;;;5.00;2.47;;;;;;;9.49;85.59;97483.44;6315780;22;20034;-80
2023/11/03 04:27:42;;;;;;;5.85;2.13;;;;;;;9.40;86.05;97490.81;6311699;22;20486;-78
2023/11/03 04:30:10;;;;;;;9.40;2.95;;;;;;;9.44;85.59;97491.97;6312398;22;20034;-79
2023/11/03 04:32:36;;;;;;;8.80;2.53;;;;;;;9.52;85.39;97496.84;6311464;22;20030;-79
2023/11/03 04:35:03;;;;;;;8.68;2.30;;;;;;;9.43;85.67;97495.59;6310254;22;20073;-80
2023/11/03 04:37:30;;;;;;;6.35;2.63;;;;;;;9.41;85.93;97494.22;6313526;22;20352;-79
2023/11/03 04:39:56;;;;;;;14.35;3.17;;;;;;;9.36;86.48;97494.91;6310614;22;20094;-79
2023/11/03 04:42:24;;;;;;;8.43;2.72;;;;;;;9.42;86.63;97496.63;6309778;22;20051;-77
2023/11/03 04:44:51;;;;;;;11.35;3.20;;;;;;;9.35;86.63;97506.34;6309066;22;20404;-79
2023/11/03 04:47:18;;;;;;;11.02;2.85;;;;;;;9.36;86.85;97505.34;6312762;22;20027;-81
2023/11/03 04:49:45;;;;;;;10.23;2.78;;;;;;;9.34;86.96;97506.59;6316113;22;20102;-80
2023/11/03 04:52:11;;;;;;;7.95;2.95;;;;;;;9.25;87.06;97514.72;6316984;22;20114;-80
2023/11/03 04:54:38;;;;;;;8.50;3.13;;;;;;;9.29;87.17;97515.88;6314123;22;20042;-80
2023/11/03 04:57:06;;;;;;;9.90;3.28;;;;;;;9.30;87.23;97525.28;6313909;22;20030;-79
2023/11/03 04:59:34;;;;;;;12.27;3.03;;;;;;;9.31;87.37;97521.66;6313391;22;20049;-79
2023/11/03 05:02:01;;;;;;;8.90;2.83;;;;;;;9.20;87.17;97521.63;6313223;22;20059;-79
2023/11/03 05:04:27;;;;;;;12.32;3.40;;;;;;;9.23;87.67;97534.22;6313009;22;20420;-81
2023/11/03 05:06:56;;;;;;;7.30;2.85;;;;;;;9.14;88.10;97538.97;6311771;22;20027;-81
2023/11/03 05:09:22;;;;;;;10.73;3.33;;;;;;;9.18;88.13;97544.53;6313171;22;20028;-79
2023/11/03 05:11:49;;;;;;;7.78;2.72;;;;;;;9.14;88.00;97546.78;6314011;22;20312;-81
2023/11/03 05:14:16;;;;;;;12.68;3.70;;;;;;;9.08;88.41;97544.25;6312586;22;20015;-80
2023/11/03 05:16:44;;;;;;;6.97;2.92;;;;;;;9.18;88.34;97549.75;6310908;22;20073;-81
2023/11/03 05:19:10;;;;;;;11.20;3.38;;;;;;;9.10;88.34;97537.00;6311576;22;20023;-79
2023/11/03 05:21:37;;;;;;;10.85;3.13;;;;;;;9.02;88.56;97548.53;6311241;22;20058;-80
2023/11/03 05:24:04;;;;;;;14.73;3.20;;;;;;;9.03;88.53;97539.72;6310576;22;20016;-80
2023/11/03 05:26:31;;;;;;;12.65;3.20;;;;;;;9.01;89.02;97549.56;6313250;22;20046;-78
2023/11/03 05:28:57;;;;;;;9.80;3.20;;;;;;;8.99;89.27;97557.59;6311454;22;20471;-79
2023/11/03 05:31:24;;;;;;;8.75;2.58;;;;;;;9.02;89.18;97568.63;6312315;22;20054;-80
2023/11/03 05:33:52;;;;;;;10.15;2.95;;;;;;;9.10;89.26;97557.88;6312427;22;20038;-81
2023/11/03 05:36:21;;;;;;;13.13;3.13;;;;;;;9.06;88.83;97560.13;6312112;22;20059;-79
2023/11/03 05:38:48;;;;;;;8.93;3.38;;;;;;;8.97;89.67;97567.50;6310291;22;20023;-80
2023/11/03 05:41:15;;;;;;;11.63;3.10;;;;;;;9.01;89.73;97557.38;6310199;22;20051;-80
2023/11/03 05:43:41;;;;;;;13.02;3.33;;;;;;;8.90;90.08;97574.59;6311384;22;20015;-79
2023/11/03 05:46:08;;;;;;;11.27;3.08;;;;;;;9.00;89.74;97581.88;6310630;22;20053;-80
2023/11/03 05:48:34;;;;;;;9.88;3.28;;;;;;;9.00;89.92;97579.25;6310449;22;20034;-78
2023/11/03 05:51:03;;;;;;;10.23;3.83;;;;;;;9.01;90.58;97580.06;6314285;22;20305;-79
2023/11/03 05:53:30;;;;;;;8.10;3.55;;;;;;;8.80;91.31;97581.34;6311933;22;20103;-79
2023/11/03 05:55:56;;;;;;;10.95;3.35;;;;;;;8.68;91.68;97586.47;6310399;22;20019;-80
2023/11/03 05:58:23;;;;;;;9.88;2.92;;;;;;;8.61;91.89;97591.75;6312162;22;20042;-79
2023/11/03 06:00:49;;;;;;;12.57;3.00;;;;;;;8.57;92.17;97593.22;6316244;22;20034;-79
2023/11/03 06:03:16;;;;;;;8.50;3.58;;;;;;;8.55;92.48;97604.84;6323596;22;20353;-79
2023/11/03 06:05:42;;;;;;;12.63;3.45;;;;;;;8.53;92.57;97596.47;6327708;22;20029;-81
2023/11/03 06:08:10;;;;;;;8.30;2.85;;;;;;;8.61;92.46;97598.78;6326629;22;20034;-79
2023/11/03 06:10:37;;;;;;;8.88;3.03;;;;;;;8.53;92.55;97612.09;6326462;22;20030;-79
2023/11/03 06:13:05;;;;;;;11.88;2.83;;;;;;;8.44;92.97;97621.22;6328218;22;20007;-79
2023/11/03 06:15:31;;;;;;;9.15;3.58;;;;;;;8.40;93.04;97609.66;6327516;22;20053;-79
2023/11/03 06:17:58;;;;;;;9.68;3.10;;;;;;;8.39;93.48;97618.47;6325077;22;20023;-79
2023/11/03 06:20:24;;;;;;;13.10;3.10;;;;;;;8.39;93.60;97611.44;6321294;22;20034;-79
2023/11/03 06:22:51;;;;;;;10.43;3.53;;;;;;;8.11;94.34;97622.28;6314591;22;20055;-79
2023/11/03 06:25:19;;;;;;;14.73;3.30;;;;;;;8.14;95.03;97631.47;6312907;22;20050;-79
2023/11/03 06:27:45;;;;;;;13.73;2.92;;;;;;;8.10;95.22;97625.88;6309089;22;20059;-79
2023/11/03 06:30:12;;;;;;;13.10;3.17;;;;;;;8.09;95.68;97644.34;6316801;22;20023;-78
2023/11/03 06:32:39;;;;;;;12.52;3.20;;;;;;;8.12;95.74;97643.91;6315228;22;20061;-78
2023/11/03 06:35:06;;;;;;;10.38;3.50;;;;;;;8.11;95.96;97635.31;6314077;22;20046;-77
2023/11/03 06:37:33;;;;;;;9.30;3.13;;;;;;;8.06;95.95;97627.31;6310999;22;20034;-79
2023/11/03 06:39:59;;;;;;;10.15;3.28;;;;;;;8.11;95.96;97648.31;6310589;22;20019;-79
2023/11/03 06:42:27;;;;;;;11.23;3.55;;;;;;;8.13;96.26;97635.09;6310842;22;20057;-79
2023/11/03 06:44:54;;;;;;;10.30;3.50;;;;;;;8.14;96.07;97637.47;6310814;22;20051;-79
2023/11/03 06:47:20;;;;;;;15.75;3.60;;;;;;;8.23;95.85;97648.44;6310739;22;20098;-78
2023/11/03 06:49:47;;;;;;;11.00;4.13;;;;;;;8.19;95.75;97645.44;6311612;22;20057;-79
2023/11/03 06:52:14;;;;;;;21.13;5.93;;;;;;;8.23;95.64;97658.84;6311136;22;20020;-79
2023/11/03 06:54:44;;;;;;;23.90;9.45;;;;;;;8.31;95.63;97654.19;6311060;22;20065;-78
2023/11/03 06:57:12;;;;;;;40.30;19.05;;;;;;;8.37;95.25;97649.94;6279635;22;20019;-80
2023/11/03 06:59:41;;;;;;;48.25;22.13;;;;;;;8.41;95.13;97658.13;6280544;22;20044;-80
2023/11/03 07:02:08;;;;;;;12.90;3.70;;;;;;;8.47;94.69;97652.06;6278680;22;20020;-79
2023/11/03 07:04:35;;;;;;;9.38;4.07;;;;;;;8.50;94.37;97646.44;6278429;22;20490;-80
2023/11/03 07:07:02;;;;;;;9.82;4.82;;;;;;;8.62;93.64;97655.91;6276249;22;20019;-79
2023/11/03 07:09:30;;;;;;;14.85;5.15;;;;;;;8.76;93.05;97659.19;6278245;22;20023;-79
2023/11/03 07:11:56;;;;;;;13.25;4.28;;;;;;;8.91;92.60;97659.63;6277847;22;20031;-78
2023/11/03 07:14:24;;;;;;;9.10;3.20;;;;;;;8.88;92.23;97654.84;6276497;22;20401;-79
2023/11/03 07:16:52;;;;;;;9.75;4.03;;;;;;;9.04;92.34;97663.09;6277917;22;20023;-78
2023/11/03 07:19:19;;;;;;;13.18;3.88;;;;;;;9.12;91.41;97654.97;6279233;22;20034;-78
2023/11/03 07:21:48;;;;;;;8.25;3.08;;;;;;;9.14;91.18;97656.34;6277840;22;20099;-79
2023/11/03 07:24:15;;;;;;;14.73;3.53;;;;;;;9.27;90.98;97647.56;6279441;22;20385;-79
2023/11/03 07:26:42;;;;;;;9.38;3.10;;;;;;;9.56;89.79;97644.16;6279974;22;20098;-80
2023/11/03 07:29:09;;;;;;;12.27;3.20;;;;;;;9.89;87.58;97619.41;6280738;22;20043;-81
2023/11/03 07:31:38;;;;;;;7.40;2.78;;;;;;;10.25;86.43;97629.69;6280415;22;20047;-79
2023/11/03 07:34:06;;;;;;;9.85;3.03;;;;;;;10.52;85.43;97626.59;6280864;22;20433;-79
2023/11/03 07:36:33;;;;;;;6.35;2.78;;;;;;;10.95;84.10;97613.91;6280147;22;20067;-81
2023/11/03 07:39:01;;;;;;;12.25;6.40;;;;;;;11.22;82.62;97618.59;6280496;22;20534;-80
2023/11/03 07:41:27;;;;;;;5.72;3.03;;;;;;;11.42;81.29;97608.50;6282656;22;20069;-80
2023/11/03 07:43:54;;;;;;;10.30;3.42;;;;;;;11.31;80.46;97593.66;6282524;22;20471;-80
2023/11/03 07:46:21;;;;;;;9.43;3.97;;;;;;;11.39;80.02;97598.50;6282877;22;20099;-81
2023/11/03 07:48:48;;;;;;;11.68;4.25;;;;;;;11.46;79.72;97599.13;6284133;22;20023;-80
2023/11/03 07:51:16;;;;;;;11.60;3.00;;;;;;;11.61;79.02;97601.25;6284376;22;20042;-79
2023/11/03 07:53:42;;;;;;;8.50;3.17;;;;;;;11.56;79.30;97611.63;6284612;22;20043;-80
2023/11/03 07:56:09;;;;;;;8.30;2.70;;;;;;;12.03;78.24;97614.78;6285793;22;20019;-80
2023/11/03 07:58:36;;;;;;;10.30;2.55;;;;;;;12.20;77.07;97615.59;6287705;22;20024;-81
2023/11/03 08:01:05;;;;;;;9.48;4.78;;;;;;;12.09;76.86;97619.06;6293252;22;20019;-81
2023/11/03 08:03:31;;;;;;;5.45;2.70;;;;;;;12.02;77.12;97636.00;6293292;22;20050;-80
2023/11/03 08:05:59;;;;;;;7.38;2.70;;;;;;;12.02;76.51;97628.13;6294368;22;20031;-80
2023/11/03 08:08:26;;;;;;;8.98;2.28;;;;;;;12.18;76.50;97645.69;6283090;22;20019;-79
2023/11/03 08:10:53;;;;;;;10.93;2.90;;;;;;;12.21;76.59;97648.63;6282735;22;20482;-79
2023/11/03 08:13:21;;;;;;;6.57;2.83;;;;;;;12.44;75.49;97649.47;6281586;22;20026;-80
2023/11/03 08:15:47;;;;;;;7.75;2.83;;;;;;;12.53;75.74;97692.63;6281735;22;20050;-81
2023/11/03 08:18:14;;;;;;;9.07;3.03;;;;;;;12.41;76.06;97697.16;6281555;22;20020;-81
2023/11/03 08:20:41;;;;;;;6.10;2.40;;;;;;;12.09;76.70;97708.19;6281061;22;20090;-80
2023/11/03 08:23:07;;;;;;;10.52;2.92;;;;;;;12.04;76.98;97718.59;6281164;22;20047;-79
2023/11/03 08:25:35;;;;;;;6.78;2.83;;;;;;;12.47;77.03;97725.06;6282711;22;20506;-80
2023/11/03 08:28:02;;;;;;;14.10;5.10;;;;;;;12.22;77.37;97728.88;6282021;22;20460;-81
2023/11/03 08:30:29;;;;;;;6.47;2.28;;;;;;;12.30;77.43;97720.59;6281764;22;20035;-82
2023/11/03 08:32:56;;;;;;;7.82;2.80;;;;;;;12.45;77.20;97716.63;6282314;22;20317;-81
2023/11/03 08:35:23;;;;;;;10.00;2.58;;;;;;;12.53;76.98;97724.09;6282061;22;20432;-80
2023/11/03 08:37:52;;;;;;;11.07;2.92;;;;;;;12.56;76.90;97723.63;6282715;22;20028;-80
2023/11/03 08:40:20;;;;;;;10.02;2.50;;;;;;;12.45;77.10;97714.78;6281602;22;20020;-81
2023/11/03 08:42:48;;;;;;;7.53;2.55;;;;;;;12.41;77.44;97744.34;6282787;22;20077;-81
2023/11/03 08:45:15;;;;;;;9.27;3.20;;;;;;;12.28;76.81;97746.28;6283427;22;20475;-80
2023/11/03 08:47:42;;;;;;;10.40;3.00;;;;;;;12.21;77.54;97750.88;6286298;22;20020;-80
2023/11/03 08:50:09;;;;;;;8.32;3.30;;;;;;;12.16;77.16;97745.53;6280080;22;20051;-79
2023/11/03 08:52:37;;;;;;;9.32;3.20;;;;;;;12.08;77.77;97756.41;6279186;22;20019;-80
2023/11/03 08:55:06;;;;;;;12.15;3.00;;;;;;;12.06;77.58;97755.03;6279729;22;20356;-79
2023/11/03 08:57:33;;;;;;;10.00;3.03;;;;;;;12.09;78.26;97776.34;6280143;22;20102;-81
2023/11/03 09:00:02;;;;;;;10.45;3.33;;;;;;;11.98;77.76;97784.25;6278936;22;20091;-78
2023/11/03 09:02:29;;;;;;;8.13;2.65;;;;;;;11.84;77.90;97789.75;6279181;22;20076;-79
2023/11/03 09:04:55;;;;;;;10.20;2.50;;;;;;;11.94;78.20;97794.41;6278454;22;20039;-80
2023/11/03 09:07:22;;;;;;;9.05;2.80;;;;;;;11.85;78.64;97801.81;6279409;22;20058;-79
2023/11/03 09:09:48;;;;;;;12.50;5.53;;;;;;;11.81;78.81;97807.78;6280455;22;20202;-79
2023/11/03 09:12:16;;;;;;;8.35;2.88;;;;;;;11.76;78.70;97813.69;6279895;22;20024;-79
2023/11/03 09:14:43;;;;;;;7.15;3.20;;;;;;;11.66;79.35;97825.78;6279674;22;20101;-79
2023/11/03 09:17:11;;;;;;;8.93;3.13;;;;;;;11.70;79.73;97838.19;6279088;22;20035;-80
2023/11/03 09:19:38;;;;;;;9.90;2.95;;;;;;;11.73;79.87;97834.31;6279570;22;20024;-82
2023/11/03 09:22:05;;;;;;;7.65;2.30;;;;;;;11.71;80.31;97831.13;6278547;22;20024;-81
2023/11/03 09:24:32;;;;;;;12.25;2.90;;;;;;;11.74;80.73;97846.38;6279178;22;20360;-81
2023/11/03 09:26:58;;;;;;;9.80;2.80;;;;;;;11.46;80.96;97842.66;6279158;22;20023;-80
2023/11/03 09:29:25;;;;;;;12.95;3.20;;;;;;;11.33;81.21;97850.75;6279199;22;20062;-80
2023/11/03 09:31:53;;;;;;;14.15;2.75;;;;;;;11.38;81.18;97858.69;6279849;22;20023;-79
2023/11/03 09:34:21;;;;;;;7.82;2.67;;;;;;;11.45;81.70;97874.28;6278799;22;20031;-82
2023/11/03 09:36:48;;;;;;;14.38;2.92;;;;;;;11.40;81.09;97866.31;6279092;22;20047;-80
2023/11/03 09:39:14;;;;;;;9.88;2.97;;;;;;;11.45;81.22;97866.44;6279968;22;20097;-80
2023/11/03 09:41:52;;;;;;;12.75;3.13;;;;;;;11.73;81.27;97878.84;6279298;22;20026;-80
2023/11/03 09:44:19;;;;;;;11.52;2.90;;;;;;;11.67;80.46;97864.84;6279028;22;20057;-81
2023/11/03 09:46:53;;;;;;;11.85;3.10;;;;;;;11.91;80.08;97868.22;6281497;22;20102;-81
2023/11/03 09:49:21;;;;;;;8.98;3.50;;;;;;;11.88;79.64;97864.25;6280968;22;20098;-82
2023/11/03 09:51:48;;;;;;;11.60;3.30;;;;;;;11.81;79.71;97865.41;6279192;22;20106;-82
2023/11/03 09:54:15;;;;;;;8.73;2.60;;;;;;;12.06;79.90;97879.03;6278765;22;20019;-82
2023/11/03 09:56:45;;;;;;;7.57;2.78;;;;;;;12.18;79.44;97874.53;6280090;22;20028;-82
2023/11/03 09:59:12;;;;;;;16.27;3.13;;;;;;;12.29;78.47;97873.69;6279313;22;20027;-82
2023/11/03 10:01:39;;;;;;;8.43;2.55;;;;;;;12.35;78.36;97852.81;6279370;22;20051;-80
2023/11/03 10:04:07;;;;;;;9.18;2.58;;;;;;;12.32;78.29;97853.28;6278596;22;20043;-82
2023/11/03 10:06:37;;;;;;;7.10;2.97;;;;;;;12.11;77.98;97847.66;6279681;22;20103;-80
2023/11/03 10:09:05;;;;;;;5.40;2.42;;;;;;;12.06;78.07;97847.56;6278653;22;20355;-81
2023/11/03 10:11:33;;;;;;;11.07;3.17;;;;;;;11.94;78.61;97841.56;6279324;22;20023;-80
2023/11/03 10:13:59;;;;;;;15.18;3.75;;;;;;;11.72;79.12;97843.19;6278771;22;20078;-80
2023/11/03 10:16:26;;;;;;;10.52;3.00;;;;;;;11.88;78.90;97845.09;6279782;22;20051;-81
2023/11/03 10:18:53;;;;;;;8.20;3.17;;;;;;;11.99;78.29;97844.28;6279835;22;20047;-81
2023/11/03 10:21:20;;;;;;;14.70;3.30;;;;;;;12.13;77.71;97839.56;6278789;22;20028;-80
2023/11/03 10:23:48;;;;;;;7.38;2.90;;;;;;;12.27;77.69;97854.81;6277972;22;20106;-81
2023/11/03 10:26:15;;;;;;;7.72;2.70;;;;;;;12.17;77.62;97851.97;6278822;22;20373;-81
2023/11/03 10:28:46;;;;;;;11.02;2.95;;;;;;;12.29;77.69;97854.53;6278582;22;20023;-81
2023/11/03 10:31:12;;;;;;;9.90;2.95;;;;;;;12.45;77.92;97863.47;6278147;22;20020;-81
2023/11/03 10:33:39;;;;;;;8.85;2.55;;;;;;;12.49;77.34;97859.38;6278534;22;20073;-80
2023/11/03 10:36:08;;;;;;;14.43;3.22;;;;;;;12.40;77.42;97845.81;6279021;22;20045;-81
2023/11/03 10:38:36;;;;;;;15.38;3.28;;;;;;;12.33;76.67;97852.25;6278996;22;20352;-81
2023/11/03 10:41:07;;;;;;;9.13;3.10;;;;;;;12.29;77.01;97857.94;6278309;22;20115;-80
2023/11/03 10:43:39;;;;;;;6.57;3.03;;;;;;;12.22;76.75;97846.84;6276688;22;20383;-80
2023/11/03 10:46:15;;;;;;;10.10;3.33;;;;;;;12.21;76.67;97858.34;6277898;22;20123;-80
2023/11/03 10:48:46;;;;;;;8.38;2.88;;;;;;;12.33;77.46;97849.63;6278374;22;20420;-79
2023/11/03 10:51:22;;;;;;;8.70;3.10;;;;;;;12.55;77.11;97847.94;6278852;22;20023;-81
2023/11/03 10:54:02;;;;;;;10.70;3.78;;;;;;;12.48;76.19;97844.66;6278727;22;20024;-80
2023/11/03 10:56:31;;;;;;;9.38;2.85;;;;;;;12.53;76.11;97836.88;6279673;22;20055;-81
2023/11/03 10:58:59;;;;;;;14.50;3.33;;;;;;;12.44;76.04;97836.47;6279970;22;20337;-79
2023/11/03 11:01:33;;;;;;;11.93;3.22;;;;;;;12.34;76.18;97840.72;6279088;22;20051;-79
2023/11/03 11:04:06;;;;;;;8.68;3.13;;;;;;;12.32;76.80;97851.44;6281999;22;20086;-81
2023/11/03 11:06:39;;;;;;;8.40;2.75;;;;;;;12.51;76.85;97862.53;6279889;22;20020;-79
2023/11/03 11:09:09;;;;;;;;;;;;;;;12.69;76.09;97857.09;6281376;22;20473;-80
2023/11/03 11:11:38;;;;;;;7.28;3.28;;;;;;;12.78;75.98;97855.66;6280382;22;19915;-80
2023/11/03 11:14:21;;;;;;;11.55;3.10;;;;;;;12.91;75.90;97863.22;6281063;22;20030;-80
2023/11/03 11:16:48;;;;;;;12.02;3.35;;;;;;;13.11;75.36;97869.84;6279278;22;20098;-81
2023/11/03 11:19:15;;;;;;;13.50;3.88;;;;;;;13.23;75.46;97860.84;6280100;22;20062;-80
2023/11/03 11:21:50;;;;;;;13.43;3.20;;;;;;;13.34;74.50;97846.03;6278777;22;20023;-80
2023/11/03 11:24:20;;;;;;;15.32;3.35;;;;;;;13.24;74.56;97845.91;6278609;22;20084;-79
2023/11/03 11:26:50;;;;;;;9.18;3.20;;;;;;;13.09;75.36;97853.53;6278882;22;20019;-80
2023/11/03 11:29:27;;;;;;;10.23;3.47;;;;;;;13.18;76.94;97868.69;6279620;22;20023;-82
2023/11/03 11:32:02;;;;;;;15.13;3.30;;;;;;;13.26;76.77;97875.34;6279923;22;20031;-79
2023/11/03 11:34:29;;;;;;;7.82;2.92;;;;;;;13.31;75.20;97862.28;6280163;22;20031;-80
2023/11/03 11:37:24;;;;;;;10.73;3.35;;;;;;;13.10;75.67;97871.66;6281203;22;20423;-79